createdAt,value
2022-11-25T00:01:32.936Z,99242.19
2022-11-25T00:04:01.552Z,99245.75
2022-11-25T00:06:34.527Z,99245.72
2022-11-25T00:09:11.928Z,99240.78
2022-11-25T00:11:41.603Z,99243.97
2022-11-25T00:14:15.084Z,99241.59
2022-11-25T00:16:48.120Z,99243.38
2022-11-25T00:19:17.451Z,99238.75
2022-11-25T00:21:45.674Z,99244.84
2022-11-25T00:24:15.723Z,99252.63
2022-11-25T00:26:44.004Z,99248.47
2022-11-25T00:29:13.232Z,99263.84
2022-11-25T00:31:41.794Z,99258.38
2022-11-25T00:34:13.520Z,99270.66
2022-11-25T00:36:41.481Z,99270.75
2022-11-25T00:39:17.745Z,99269.44
2022-11-25T00:42:04.976Z,99272.84
2022-11-25T00:44:36.253Z,99269.66
2022-11-25T00:47:18.781Z,99272.41
2022-11-25T00:49:51.942Z,99278.94
2022-11-25T00:52:24.435Z,99276.44
2022-11-25T00:54:53.060Z,99272.88
2022-11-25T00:57:23.024Z,99273.91
2022-11-25T00:59:50.963Z,99281.88
2022-11-25T01:02:22.614Z,99286.72
2022-11-25T01:04:50.462Z,99289.84
2022-11-25T01:07:18.626Z,99293.22
2022-11-25T01:09:48.173Z,99295.53
2022-11-25T01:12:16.044Z,99297.22
2022-11-25T01:14:43.904Z,99297.78
2022-11-25T01:17:14.861Z,99302.25
2022-11-25T01:19:42.663Z,99294.69
2022-11-25T01:22:10.582Z,99289.25
2022-11-25T01:24:39.051Z,99302.47
2022-11-25T01:27:07.045Z,99297.22
2022-11-25T01:29:34.849Z,99302.06
2022-11-25T01:32:03.033Z,99305.78
2022-11-25T01:34:32.828Z,99301.91
2022-11-25T01:37:00.744Z,99304.56
2022-11-25T01:39:32.923Z,99303.84
2022-11-25T01:42:01.937Z,99294.34
2022-11-25T01:44:32.423Z,99303.69
2022-11-25T01:47:09.182Z,99304.44
2022-11-25T01:50:05.644Z,99300.59
2022-11-25T01:52:37.064Z,99303.41
2022-11-25T01:55:12.272Z,99303.28
2022-11-25T01:57:44.824Z,99305.97
2022-11-25T02:00:13.753Z,99296.25
2022-11-25T02:02:45.798Z,99297.84
2022-11-25T02:05:17.031Z,99298.38
2022-11-25T02:07:47.444Z,99298.84
2022-11-25T02:10:23.073Z,99295.41
2022-11-25T02:12:51.862Z,99298.47
2022-11-25T02:15:21.093Z,99301.69
2022-11-25T02:17:49.440Z,99306.28
2022-11-25T02:20:22.132Z,99301.84
2022-11-25T02:23:33.532Z,99299.72
2022-11-25T02:26:02.242Z,99309.88
2022-11-25T02:28:31.626Z,99312.16
2022-11-25T02:30:59.792Z,99314.84
2022-11-25T02:33:28.274Z,99310.31
2022-11-25T02:35:59.393Z,99314.31
2022-11-25T02:38:43.933Z,99308.47
2022-11-25T02:41:18.151Z,99308.22
2022-11-25T02:43:47.472Z,99305.75
2022-11-25T02:46:21.873Z,99303.09
2022-11-25T02:49:09.420Z,99303.31
2022-11-25T02:51:40.150Z,99297.50
2022-11-25T02:54:09.675Z,99300.91
2022-11-25T02:56:37.866Z,99310.13
2022-11-25T02:59:05.791Z,99321.22
2022-11-25T03:01:35.579Z,99320.81
2022-11-25T03:04:06.359Z,99322.06
2022-11-25T03:06:34.918Z,99324.94
2022-11-25T03:09:03.388Z,99321.88
2022-11-25T03:11:54.575Z,99317.28
2022-11-25T03:14:22.802Z,99320.13
2022-11-25T03:16:51.150Z,99323.88
2022-11-25T03:19:19.033Z,99327.69
2022-11-25T03:21:47.183Z,99327.91
2022-11-25T03:24:15.025Z,99332.59
2022-11-25T03:26:42.820Z,99324.19
2022-11-25T03:29:11.172Z,99327.66
2022-11-25T03:31:38.937Z,99325.22
2022-11-25T03:34:09.432Z,99331.00
2022-11-25T03:36:37.760Z,99339.72
2022-11-25T03:39:06.404Z,99344.13
2022-11-25T03:41:34.942Z,99347.69
2022-11-25T03:44:03.284Z,99341.31
2022-11-25T03:46:31.224Z,99338.84
2022-11-25T03:48:59.771Z,99339.97
2022-11-25T03:51:28.913Z,99340.84
2022-11-25T03:53:57.063Z,99343.22
2022-11-25T03:56:25.323Z,99343.19
2022-11-25T03:58:53.713Z,99350.25
2022-11-25T04:01:22.575Z,99353.00
2022-11-25T04:03:51.525Z,99351.94
2022-11-25T04:06:21.794Z,99352.81
2022-11-25T04:08:50.505Z,99356.97
2022-11-25T04:11:18.913Z,99364.75
2022-11-25T04:13:48.512Z,99362.84
2022-11-25T04:16:26.686Z,99371.19
2022-11-25T04:18:54.994Z,99373.12
2022-11-25T04:21:22.815Z,99368.50
2022-11-25T04:23:50.733Z,99368.13
2022-11-25T04:26:19.022Z,99375.09
2022-11-25T04:28:46.983Z,99374.53
2022-11-25T04:31:15.028Z,99389.53
2022-11-25T04:33:45.952Z,99398.84
2022-11-25T04:36:16.343Z,99403.88
2022-11-25T04:38:44.802Z,99405.91
2022-11-25T04:41:12.953Z,99409.16
2022-11-25T04:43:40.954Z,99414.41
2022-11-25T04:46:15.518Z,99420.25
2022-11-25T04:48:44.323Z,99421.06
2022-11-25T04:51:12.469Z,99425.03
2022-11-25T04:53:40.395Z,99438.69
2022-11-25T04:56:09.984Z,99441.16
2022-11-25T04:58:57.902Z,99437.47
2022-11-25T05:01:26.009Z,99439.69
2022-11-25T05:03:57.636Z,99452.22
2022-11-25T05:06:26.404Z,99447.31
2022-11-25T05:08:55.145Z,99452.44
2022-11-25T05:11:23.873Z,99457.19
2022-11-25T05:13:52.143Z,99462.03
2022-11-25T05:16:20.730Z,99457.69
2022-11-25T05:18:48.802Z,99458.19
2022-11-25T05:21:17.682Z,99469.25
2022-11-25T05:23:45.994Z,99464.06
2022-11-25T05:26:14.633Z,99475.81
2022-11-25T05:28:42.825Z,99474.94
2022-11-25T05:31:11.453Z,99478.13
2022-11-25T05:33:39.392Z,99485.28
2022-11-25T05:36:07.693Z,99490.37
2022-11-25T05:38:36.223Z,99498.91
2022-11-25T05:41:06.722Z,99494.69
2022-11-25T05:43:35.616Z,99490.41
2022-11-25T05:46:08.059Z,99493.78
2022-11-25T05:48:36.220Z,99501.84
2022-11-25T05:51:05.334Z,99504.00
2022-11-25T05:53:33.695Z,99506.78
2022-11-25T05:56:05.192Z,99509.25
2022-11-25T05:58:34.233Z,99505.50
2022-11-25T06:01:07.163Z,99511.56
2022-11-25T06:03:37.513Z,99502.56
2022-11-25T06:06:06.633Z,99520.84
2022-11-25T06:08:35.592Z,99508.81
2022-11-25T06:11:12.146Z,99515.19
2022-11-25T06:13:40.865Z,99518.78
2022-11-25T06:16:14.210Z,99518.44
2022-11-25T06:18:42.442Z,99517.03
2022-11-25T06:21:13.664Z,99522.41
2022-11-25T06:23:41.638Z,99530.16
2022-11-25T06:26:20.474Z,99531.69
2022-11-25T06:28:48.972Z,99543.37
2022-11-25T06:31:19.744Z,99543.47
2022-11-25T06:33:50.963Z,99547.47
2022-11-25T06:36:20.411Z,99547.34
2022-11-25T06:38:51.290Z,99554.28
2022-11-25T06:41:19.634Z,99550.47
2022-11-25T06:43:47.501Z,99555.22
2022-11-25T06:46:23.062Z,99553.63
2022-11-25T06:48:55.654Z,99550.78
2022-11-25T06:51:24.747Z,99551.63
2022-11-25T06:53:53.135Z,99563.28
2022-11-25T06:56:26.402Z,99550.66
2022-11-25T06:58:55.357Z,99555.03
2022-11-25T07:01:25.790Z,99550.91
2022-11-25T07:03:56.279Z,99557.16
2022-11-25T07:06:24.793Z,99557.63
2022-11-25T07:08:52.984Z,99561.94
2022-11-25T07:11:20.881Z,99570.72
2022-11-25T07:13:52.503Z,99570.09
2022-11-25T07:16:20.496Z,99571.00
2022-11-25T07:18:48.522Z,99581.09
2022-11-25T07:21:19.344Z,99581.03
2022-11-25T07:23:47.746Z,99589.37
2022-11-25T07:26:27.112Z,99585.84
2022-11-25T07:28:58.547Z,99584.22
2022-11-25T07:31:35.153Z,99587.75
2022-11-25T07:34:06.593Z,99579.25
2022-11-25T07:36:35.256Z,99578.19
2022-11-25T07:39:06.605Z,99576.75
2022-11-25T07:41:34.673Z,99580.97
2022-11-25T07:44:05.161Z,99582.03
2022-11-25T07:46:38.657Z,99585.44
2022-11-25T07:49:09.351Z,99587.03
2022-11-25T07:51:50.633Z,99590.31
2022-11-25T07:54:18.552Z,99582.81
2022-11-25T07:56:48.643Z,99594.97
2022-11-25T07:59:18.903Z,99587.25
2022-11-25T08:01:49.997Z,99586.53
2022-11-25T08:04:20.759Z,99591.16
2022-11-25T08:06:51.621Z,99593.94
2022-11-25T08:09:23.153Z,99593.19
2022-11-25T08:11:51.724Z,99597.31
2022-11-25T08:14:20.232Z,99594.50
2022-11-25T08:16:48.263Z,99596.25
2022-11-25T08:19:17.639Z,99593.00
2022-11-25T08:21:48.306Z,99599.81
2022-11-25T08:24:21.050Z,99605.37
2022-11-25T08:26:50.023Z,99614.72
2022-11-25T08:29:19.344Z,99614.09
2022-11-25T08:31:47.583Z,99613.13
2022-11-25T08:34:25.523Z,99611.47
2022-11-25T08:36:54.234Z,99613.41
2022-11-25T08:39:50.373Z,99611.69
2022-11-25T08:42:11.348Z,99616.66
2022-11-25T08:44:39.573Z,99605.13
2022-11-25T08:47:07.413Z,99610.22
2022-11-25T08:49:40.811Z,99607.81
2022-11-25T08:52:10.670Z,99617.66
2022-11-25T08:54:38.632Z,99615.59
2022-11-25T08:57:06.490Z,99611.44
2022-11-25T08:59:35.499Z,99611.75
2022-11-25T09:02:04.309Z,99609.28
2022-11-25T09:04:32.391Z,99607.88
2022-11-25T09:07:01.191Z,99619.13
2022-11-25T09:09:29.199Z,99617.00
2022-11-25T09:11:57.092Z,99606.81
2022-11-25T09:14:25.529Z,99622.25
2022-11-25T09:16:53.824Z,99617.97
2022-11-25T09:19:21.704Z,99619.66
2022-11-25T09:21:50.015Z,99611.31
2022-11-25T09:24:18.091Z,99615.69
2022-11-25T09:26:46.511Z,99622.34
2022-11-25T09:29:14.817Z,99616.72
2022-11-25T09:31:43.002Z,99612.66
2022-11-25T09:34:11.191Z,99616.50
2022-11-25T09:36:39.462Z,99615.78
2022-11-25T09:39:08.050Z,99613.41
2022-11-25T09:42:16.321Z,99606.09
2022-11-25T09:45:31.702Z,99604.91
2022-11-25T09:48:11.653Z,99607.28
2022-11-25T09:50:44.573Z,99609.16
2022-11-25T09:53:42.213Z,99610.97
2022-11-25T09:56:56.691Z,99602.06
2022-11-25T09:59:38.455Z,99608.09
2022-11-25T10:02:40.733Z,99611.50
2022-11-25T10:05:22.149Z,99612.75
2022-11-25T10:08:00.340Z,99612.72
2022-11-25T10:10:33.498Z,99606.09
2022-11-25T10:13:01.750Z,99614.84
2022-11-25T10:15:33.804Z,99601.03
2022-11-25T10:18:07.290Z,99605.34
2022-11-25T10:20:40.480Z,99606.31
2022-11-25T10:23:32.563Z,99602.78
2022-11-25T10:26:13.278Z,99606.81
2022-11-25T10:28:48.250Z,99607.50
2022-11-25T10:31:27.464Z,99602.81
2022-11-25T10:34:00.022Z,99602.41
2022-11-25T10:36:34.129Z,99599.28
2022-11-25T10:39:11.439Z,99602.91
2022-11-25T10:41:56.035Z,99600.59
2022-11-25T10:44:30.393Z,99601.66
2022-11-25T10:47:13.840Z,99606.19
2022-11-25T10:50:14.603Z,99612.28
2022-11-25T10:53:07.521Z,99615.50
2022-11-25T10:55:36.250Z,99621.50
2022-11-25T10:58:42.801Z,99621.50
2022-11-25T11:01:21.532Z,99622.09
2022-11-25T11:04:04.663Z,99621.47
2022-11-25T11:06:38.480Z,99625.78
2022-11-25T11:09:07.050Z,99627.16
2022-11-25T11:11:47.441Z,99623.41
2022-11-25T11:14:20.170Z,99623.66
2022-11-25T11:16:56.209Z,99626.41
2022-11-25T11:19:27.273Z,99633.84
2022-11-25T11:21:56.628Z,99633.22
2022-11-25T11:24:32.420Z,99629.88
2022-11-25T11:27:18.780Z,99626.63
2022-11-25T11:29:47.171Z,99626.84
2022-11-25T11:32:24.296Z,99619.06
2022-11-25T11:35:08.001Z,99617.09
2022-11-25T11:37:44.549Z,99620.06
2022-11-25T11:40:39.770Z,99611.13
2022-11-25T11:43:13.711Z,99623.00
2022-11-25T11:45:57.161Z,99631.62
2022-11-25T11:49:02.971Z,99631.16
2022-11-25T11:51:56.830Z,99616.47
2022-11-25T11:54:37.825Z,99626.84
2022-11-25T11:57:18.340Z,99620.19
2022-11-25T11:59:54.866Z,99619.13
2022-11-25T12:02:36.181Z,99612.28
2022-11-25T12:05:10.847Z,99606.06
2022-11-25T12:07:41.699Z,99613.09
2022-11-25T12:10:22.941Z,99603.78
2022-11-25T12:13:13.761Z,99615.13
2022-11-25T12:15:53.298Z,99605.81
2022-11-25T12:18:39.481Z,99613.94
2022-11-25T12:21:42.088Z,99611.34
2022-11-25T12:24:23.752Z,99603.91
2022-11-25T12:26:57.834Z,99608.22
2022-11-25T12:29:47.347Z,99611.84
2022-11-25T12:32:37.300Z,99604.84
2022-11-25T12:35:21.089Z,99613.59
2022-11-25T12:38:09.672Z,99612.75
2022-11-25T12:40:58.935Z,99607.91
2022-11-25T12:43:53.771Z,99607.75
2022-11-25T12:47:09.232Z,99599.50
2022-11-25T12:49:45.301Z,99595.66
2022-11-25T12:52:30.830Z,99591.59
2022-11-25T12:55:25.874Z,99594.69
2022-11-25T12:58:10.629Z,99596.13
2022-11-25T13:00:57.563Z,99598.88
2022-11-25T13:03:41.302Z,99598.53
2022-11-25T13:06:32.300Z,99592.19
2022-11-25T13:09:27.703Z,99586.19
2022-11-25T13:12:18.001Z,99589.37
2022-11-25T13:14:55.311Z,99585.53
2022-11-25T13:17:24.796Z,99595.59
2022-11-25T13:20:45.641Z,99590.28
2022-11-25T13:23:22.871Z,99592.50
2022-11-25T13:25:52.445Z,99597.47
2022-11-25T13:28:39.042Z,99597.75
2022-11-25T13:31:31.590Z,99603.09
2022-11-25T13:34:09.132Z,99605.88
2022-11-25T13:36:49.911Z,99611.56
2022-11-25T13:39:38.683Z,99617.81
2022-11-25T13:42:25.843Z,99613.66
2022-11-25T13:44:56.292Z,99615.97
2022-11-25T13:47:43.061Z,99613.59
2022-11-25T13:50:21.887Z,99609.31
2022-11-25T13:53:00.462Z,99607.50
2022-11-25T13:55:38.009Z,99612.16
2022-11-25T13:58:41.441Z,99619.19
2022-11-25T14:01:29.792Z,99623.28
2022-11-25T14:04:00.486Z,99622.78
2022-11-25T14:06:57.641Z,99620.19
2022-11-25T14:09:50.381Z,99631.88
2022-11-25T14:12:33.444Z,99632.06
2022-11-25T14:15:17.930Z,99637.25
2022-11-25T14:18:02.960Z,99648.91
2022-11-25T14:20:36.880Z,99646.12
2022-11-25T14:23:22.616Z,99647.19
2022-11-25T14:25:53.958Z,99648.94
2022-11-25T14:28:21.999Z,99648.97
2022-11-25T14:30:55.345Z,99655.00
2022-11-25T14:34:00.693Z,99644.63
2022-11-25T14:36:34.512Z,99654.91
2022-11-25T14:39:06.513Z,99648.94
2022-11-25T14:41:42.022Z,99651.56
2022-11-25T14:44:15.731Z,99656.78
2022-11-25T14:46:54.750Z,99654.12
2022-11-25T14:52:17.081Z,99652.19
2022-11-25T14:54:46.001Z,99655.88
2022-11-25T14:57:13.885Z,99654.00
2022-11-25T14:59:45.384Z,99661.56
2022-11-25T15:02:31.987Z,99659.41
2022-11-25T15:05:15.280Z,99663.66
2022-11-25T15:08:08.989Z,99661.62
2022-11-25T15:10:52.788Z,99664.75
2022-11-25T15:13:32.732Z,99662.84
2022-11-25T15:16:15.340Z,99669.62
2022-11-25T15:18:55.702Z,99668.25
2022-11-25T15:22:14.969Z,99670.41
2022-11-25T15:24:48.876Z,99666.84
2022-11-25T15:27:25.507Z,99670.59
2022-11-25T15:29:55.643Z,99674.78
2022-11-25T15:32:26.493Z,99675.28
2022-11-25T15:34:56.721Z,99682.56
2022-11-25T15:37:24.782Z,99681.50
2022-11-25T15:40:31.664Z,99680.53
2022-11-25T15:43:01.362Z,99679.50
2022-11-25T15:46:06.318Z,99675.81
2022-11-25T15:48:45.426Z,99671.56
2022-11-25T15:51:20.981Z,99666.41
2022-11-25T15:54:17.922Z,99669.59
2022-11-25T15:56:51.392Z,99671.06
2022-11-25T16:00:01.731Z,99668.63
2022-11-25T16:02:41.939Z,99669.66
2022-11-25T16:05:13.381Z,99662.91
2022-11-25T16:07:50.723Z,99667.00
2022-11-25T16:10:20.901Z,99668.06
2022-11-25T16:13:22.209Z,99674.69
2022-11-25T16:16:08.771Z,99682.75
2022-11-25T16:18:42.102Z,99694.97
2022-11-25T16:21:14.005Z,99681.78
2022-11-25T16:23:48.912Z,99687.25
2022-11-25T16:26:25.500Z,99689.03
2022-11-25T16:28:56.155Z,99695.72
2022-11-25T16:31:28.832Z,99699.72
2022-11-25T16:34:01.094Z,99695.69
2022-11-25T16:36:29.310Z,99696.53
2022-11-25T16:38:57.392Z,99701.19
2022-11-25T16:41:26.080Z,99698.69
2022-11-25T16:43:58.445Z,99702.28
2022-11-25T16:46:28.449Z,99708.75
2022-11-25T16:48:56.923Z,99703.37
2022-11-25T16:51:26.092Z,99717.75
2022-11-25T16:53:54.271Z,99715.22
2022-11-25T16:56:27.481Z,99713.28
2022-11-25T16:58:55.823Z,99724.28
2022-11-25T17:01:26.737Z,99727.03
2022-11-25T17:03:54.791Z,99724.97
2022-11-25T17:06:25.271Z,99721.16
2022-11-25T17:08:53.642Z,99723.34
2022-11-25T17:11:26.862Z,99726.19
2022-11-25T17:13:55.733Z,99724.63
2022-11-25T17:16:26.150Z,99723.31
2022-11-25T17:18:56.154Z,99728.00
2022-11-25T17:21:29.841Z,99728.47
2022-11-25T17:24:01.114Z,99723.75
2022-11-25T17:26:40.115Z,99727.22
2022-11-25T17:29:12.102Z,99729.09
2022-11-25T17:31:40.784Z,99721.28
2022-11-25T17:34:13.780Z,99723.12
2022-11-25T17:36:43.685Z,99730.97
2022-11-25T17:39:13.195Z,99733.09
2022-11-25T17:41:46.690Z,99722.56
2022-11-25T17:44:26.230Z,99726.44
2022-11-25T17:46:57.746Z,99727.69
2022-11-25T17:49:25.942Z,99730.09
2022-11-25T17:51:54.172Z,99725.91
2022-11-25T17:54:22.130Z,99732.59
2022-11-25T17:56:52.580Z,99730.97
2022-11-25T17:59:26.133Z,99734.06
2022-11-25T18:01:56.227Z,99744.34
2022-11-25T18:04:27.904Z,99743.78
2022-11-25T18:06:55.752Z,99739.19
2022-11-25T18:09:23.732Z,99756.06
2022-11-25T18:11:57.684Z,99759.94
2022-11-25T18:14:34.250Z,99768.84
2022-11-25T18:17:06.767Z,99764.53
2022-11-25T18:19:35.290Z,99776.34
2022-11-25T18:22:13.142Z,99770.84
2022-11-25T18:24:41.415Z,99772.22
2022-11-25T18:27:36.120Z,99770.78
2022-11-25T18:30:06.691Z,99772.34
2022-11-25T18:32:34.860Z,99775.00
2022-11-25T18:35:02.851Z,99778.84
2022-11-25T18:37:30.783Z,99774.19
2022-11-25T18:39:59.032Z,99774.69
2022-11-25T18:42:27.814Z,99783.91
2022-11-25T18:44:56.330Z,99785.28
2022-11-25T18:47:24.534Z,99786.69
2022-11-25T18:49:56.149Z,99793.84
2022-11-25T18:52:25.387Z,99799.72
2022-11-25T18:54:53.363Z,99799.22
2022-11-25T18:57:21.355Z,99804.25
2022-11-25T19:00:10.194Z,99799.66
2022-11-25T19:02:37.587Z,99804.78
2022-11-25T19:05:27.012Z,99802.31
2022-11-25T19:07:56.021Z,99812.22
2022-11-25T19:10:27.981Z,99813.44
2022-11-25T19:12:58.932Z,99816.81
2022-11-25T19:15:27.373Z,99820.03
2022-11-25T19:18:00.707Z,99819.00
2022-11-25T19:20:30.417Z,99820.38
2022-11-25T19:23:12.331Z,99826.69
2022-11-25T19:25:40.592Z,99828.97
2022-11-25T19:28:13.141Z,99821.38
2022-11-25T19:30:41.322Z,99827.53
2022-11-25T19:33:16.172Z,99832.72
2022-11-25T19:35:44.433Z,99833.03
2022-11-25T19:38:19.800Z,99832.06
2022-11-25T19:40:49.494Z,99833.94
2022-11-25T19:43:17.402Z,99842.31
2022-11-25T19:45:45.985Z,99844.38
2022-11-25T19:48:19.011Z,99848.66
2022-11-25T19:50:49.391Z,99846.94
2022-11-25T19:53:19.881Z,99855.72
2022-11-25T19:55:48.351Z,99859.59
2022-11-25T19:58:16.277Z,99860.91
2022-11-25T20:00:46.079Z,99860.00
2022-11-25T20:03:19.601Z,99860.97
2022-11-25T20:05:49.082Z,99860.50
2022-11-25T20:08:20.080Z,99859.25
2022-11-25T20:10:48.461Z,99869.88
2022-11-25T20:13:16.482Z,99873.84
2022-11-25T20:15:45.382Z,99871.31
2022-11-25T20:18:18.675Z,99879.56
2022-11-25T20:20:49.431Z,99874.72
2022-11-25T20:23:46.500Z,99882.09
2022-11-25T20:26:36.094Z,99884.34
2022-11-25T20:29:12.514Z,99893.66
2022-11-25T20:31:40.710Z,99893.22
2022-11-25T20:34:08.480Z,99891.16
2022-11-25T20:36:36.338Z,99899.19
2022-11-25T20:39:04.611Z,99901.19
2022-11-25T20:41:33.532Z,99900.66
2022-11-25T20:44:01.604Z,99903.28
2022-11-25T20:46:30.329Z,99907.63
2022-11-25T20:49:00.889Z,99911.31
2022-11-25T20:51:29.410Z,99915.56
2022-11-25T20:54:01.194Z,99915.91
2022-11-25T20:56:30.274Z,99917.09
2022-11-25T20:58:58.195Z,99909.97
2022-11-25T21:01:26.062Z,99914.09
2022-11-25T21:03:54.391Z,99908.44
2022-11-25T21:06:27.744Z,99908.63
2022-11-25T21:08:58.562Z,99901.19
2022-11-25T21:11:28.117Z,99908.31
2022-11-25T21:13:56.386Z,99915.28
2022-11-25T21:16:25.818Z,99909.81
2022-11-25T21:18:53.765Z,99912.81
2022-11-25T21:21:30.422Z,99909.34
2022-11-25T21:23:58.532Z,99913.56
2022-11-25T21:26:27.051Z,99910.34
2022-11-25T21:28:55.305Z,99913.19
2022-11-25T21:31:24.956Z,99915.63
2022-11-25T21:34:00.760Z,99910.00
2022-11-25T21:36:30.031Z,99910.91
2022-11-25T21:39:07.420Z,99917.66
2022-11-25T21:41:35.683Z,99922.09
2022-11-25T21:44:05.149Z,99914.88
2022-11-25T21:46:33.127Z,99917.72
2022-11-25T21:49:01.107Z,99915.63
2022-11-25T21:51:29.354Z,99917.91
2022-11-25T21:53:57.290Z,99917.50
2022-11-25T21:56:34.635Z,99915.81
2022-11-25T21:59:05.450Z,99926.41
2022-11-25T22:01:33.535Z,99922.06
2022-11-25T22:04:01.710Z,99926.06
2022-11-25T22:06:32.073Z,99926.22
2022-11-25T22:08:59.916Z,99932.31
2022-11-25T22:11:33.710Z,99928.62
2022-11-25T22:14:04.361Z,99931.16
2022-11-25T22:16:34.608Z,99926.97
2022-11-25T22:19:02.720Z,99927.38
2022-11-25T22:21:30.770Z,99929.00
2022-11-25T22:23:59.068Z,99931.66
2022-11-25T22:26:34.555Z,99936.44
2022-11-25T22:29:02.791Z,99935.75
2022-11-25T22:31:30.613Z,99946.72
2022-11-25T22:33:58.582Z,99946.78
2022-11-25T22:36:36.793Z,99952.84
2022-11-25T22:39:17.341Z,99949.97
2022-11-25T22:41:52.646Z,99948.84
2022-11-25T22:44:43.491Z,99945.22
2022-11-25T22:47:36.673Z,99945.38
2022-11-25T22:50:07.989Z,99953.91
2022-11-25T22:52:36.549Z,99952.78
2022-11-25T22:55:17.155Z,99960.41
2022-11-25T22:57:45.647Z,99960.28
2022-11-25T23:00:21.992Z,99960.69
2022-11-25T23:02:51.195Z,99958.31
2022-11-25T23:05:33.495Z,99963.41
2022-11-25T23:08:19.811Z,99962.53
2022-11-25T23:10:48.650Z,99964.16
2022-11-25T23:13:18.741Z,99968.22
2022-11-25T23:15:55.012Z,99970.28
2022-11-25T23:18:37.922Z,99971.16
2022-11-25T23:21:10.282Z,99976.03
2022-11-25T23:23:38.420Z,99971.06
2022-11-25T23:26:06.811Z,99976.75
2022-11-25T23:28:34.757Z,99975.16
2022-11-25T23:31:03.175Z,99973.84
2022-11-25T23:33:43.660Z,99984.50
2022-11-25T23:36:34.151Z,99979.88
2022-11-25T23:39:03.781Z,99971.94
2022-11-25T23:41:33.662Z,99973.91
2022-11-25T23:44:26.271Z,99982.03
2022-11-25T23:46:57.922Z,99980.75
2022-11-25T23:49:33.273Z,99983.13
2022-11-25T23:52:07.567Z,99984.59
2022-11-25T23:54:42.671Z,99983.53
2022-11-25T23:57:22.369Z,99987.44
2022-11-25T23:59:50.919Z,99985.41
